createdAt,value
2023-02-27T00:04:03.947Z,102990.38
2023-02-27T00:09:26.115Z,102988.75
2023-02-27T00:14:51.434Z,102988.09
2023-02-27T00:20:16.779Z,102984.75
2023-02-27T00:25:38.806Z,102983.97
2023-02-27T00:31:04.734Z,102988.53
2023-02-27T00:36:26.957Z,102988.56
2023-02-27T00:41:49.042Z,102986.97
2023-02-27T00:47:11.049Z,103002.13
2023-02-27T00:52:34.851Z,102992.69
2023-02-27T00:57:56.840Z,102993.78
2023-02-27T01:03:18.841Z,103000.88
2023-02-27T01:08:41.727Z,103001.94
2023-02-27T01:14:03.817Z,103009.06
2023-02-27T01:19:26.097Z,103005.78
2023-02-27T01:24:48.112Z,103001.38
2023-02-27T01:30:11.730Z,103012.88
2023-02-27T01:35:33.709Z,103006.91
2023-02-27T01:40:57.288Z,103000.94
2023-02-27T01:46:24.055Z,103002.75
2023-02-27T01:51:50.666Z,103002.03
2023-02-27T01:57:12.658Z,103009.16
2023-02-27T02:02:37.756Z,103020.59
2023-02-27T02:08:07.731Z,103012.88
2023-02-27T02:13:29.895Z,103013.97
2023-02-27T02:19:20.631Z,103009.69
2023-02-27T02:25:12.485Z,103003.75
2023-02-27T02:30:55.443Z,103010.00
2023-02-27T02:36:32.752Z,103012.66
2023-02-27T02:42:05.844Z,103004.91
2023-02-27T02:47:40.970Z,103003.34
2023-02-27T02:53:18.095Z,102988.66
2023-02-27T02:59:04.441Z,102993.06
2023-02-27T03:05:01.370Z,103000.94
2023-02-27T03:10:45.516Z,102980.19
2023-02-27T03:16:18.344Z,102990.72
2023-02-27T03:22:05.324Z,102983.84
2023-02-27T03:27:32.049Z,103004.94
2023-02-27T03:33:16.561Z,103007.63
2023-02-27T03:38:48.679Z,103007.75
2023-02-27T03:44:36.373Z,103005.31
2023-02-27T03:49:59.029Z,103015.88
2023-02-27T03:55:26.850Z,103023.72
2023-02-27T04:00:49.519Z,103033.16
2023-02-27T04:06:30.308Z,103039.63
2023-02-27T04:12:32.386Z,103044.78
2023-02-27T04:18:16.308Z,103044.06
2023-02-27T04:23:50.069Z,103048.78
2023-02-27T04:29:19.741Z,103048.34
2023-02-27T04:34:53.195Z,103066.13
2023-02-27T04:40:21.142Z,103068.28
2023-02-27T04:45:45.609Z,103065.19
2023-02-27T04:51:14.066Z,103082.25
2023-02-27T04:56:44.133Z,103074.13
2023-02-27T05:02:13.216Z,103081.63
2023-02-27T05:08:02.386Z,103082.16
2023-02-27T05:13:29.744Z,103091.50
2023-02-27T05:18:51.751Z,103091.06
2023-02-27T05:24:34.769Z,103087.91
2023-02-27T05:30:00.820Z,103094.25
2023-02-27T05:35:30.825Z,103086.03
2023-02-27T05:41:01.235Z,103082.31
2023-02-27T05:46:29.992Z,103081.31
2023-02-27T05:51:54.933Z,103084.53
2023-02-27T05:57:22.620Z,103086.97
2023-02-27T06:02:45.234Z,103083.97
2023-02-27T06:08:08.839Z,103091.78
2023-02-27T06:13:31.118Z,103093.44
2023-02-27T06:18:53.258Z,103104.81
2023-02-27T06:24:17.665Z,103100.38
2023-02-27T06:29:41.876Z,103103.56
2023-02-27T06:35:06.545Z,103109.44
2023-02-27T06:40:28.854Z,103118.13
2023-02-27T06:45:56.103Z,103120.72
2023-02-27T06:51:21.023Z,103120.09
2023-02-27T06:56:45.268Z,103122.84
2023-02-27T07:02:12.464Z,103125.75
2023-02-27T07:07:38.238Z,103134.03
2023-02-27T07:13:01.230Z,103145.84
2023-02-27T07:18:25.686Z,103152.69
2023-02-27T07:23:47.949Z,103152.50
2023-02-27T07:29:10.040Z,103154.56
2023-02-27T07:34:32.048Z,103166.22
2023-02-27T07:39:56.374Z,103163.75
2023-02-27T07:45:18.605Z,103166.75
2023-02-27T07:50:40.648Z,103164.28
2023-02-27T07:56:05.477Z,103178.06
2023-02-27T08:01:27.446Z,103172.91
2023-02-27T08:06:51.871Z,103167.97
2023-02-27T08:12:16.197Z,103166.22
2023-02-27T08:17:38.239Z,103179.19
2023-02-27T08:23:00.540Z,103184.53
2023-02-27T08:28:25.273Z,103182.03
2023-02-27T08:34:00.810Z,103185.88
2023-02-27T08:39:30.376Z,103179.00
2023-02-27T08:44:54.915Z,103185.97
2023-02-27T08:50:18.350Z,103191.38
2023-02-27T08:55:40.589Z,103192.69
2023-02-27T09:01:04.832Z,103192.09
2023-02-27T09:06:26.900Z,103191.75
2023-02-27T09:11:49.793Z,103185.88
2023-02-27T09:17:11.991Z,103180.72
2023-02-27T09:22:34.135Z,103189.63
2023-02-27T09:27:59.036Z,103195.69
2023-02-27T09:33:21.022Z,103196.94
2023-02-27T09:38:43.397Z,103190.19
2023-02-27T09:44:14.799Z,103194.25
2023-02-27T09:49:48.304Z,103175.47
2023-02-27T09:55:17.888Z,103186.34
2023-02-27T10:00:45.921Z,103184.47
2023-02-27T10:06:34.021Z,103188.75
2023-02-27T10:12:29.413Z,103199.41
2023-02-27T10:17:54.399Z,103203.59
2023-02-27T10:23:23.369Z,103198.75
2023-02-27T10:28:47.595Z,103217.38
2023-02-27T10:34:14.868Z,103215.00
2023-02-27T10:39:48.255Z,103235.00
2023-02-27T10:45:17.201Z,103231.28
2023-02-27T10:50:45.040Z,103236.03
2023-02-27T10:56:10.673Z,103237.56
2023-02-27T11:01:49.546Z,103246.03
2023-02-27T11:07:14.324Z,103242.38
2023-02-27T11:12:41.341Z,103236.22
2023-02-27T11:18:22.136Z,103238.41
2023-02-27T11:23:49.986Z,103241.03
2023-02-27T11:29:19.013Z,103234.09
2023-02-27T11:34:48.614Z,103238.72
2023-02-27T11:40:12.779Z,103236.81
2023-02-27T11:46:04.904Z,103234.72
2023-02-27T11:51:46.840Z,103235.44
2023-02-27T11:57:18.457Z,103232.13
2023-02-27T12:03:01.944Z,103228.44
2023-02-27T12:08:46.595Z,103225.41
2023-02-27T12:14:10.534Z,103216.69
2023-02-27T12:19:40.439Z,103222.88
2023-02-27T12:25:08.326Z,103224.81
2023-02-27T12:30:39.592Z,103216.91
2023-02-27T12:36:03.129Z,103220.88
2023-02-27T12:41:31.064Z,103210.59
2023-02-27T12:47:25.115Z,103212.28
2023-02-27T12:53:13.764Z,103212.13
2023-02-27T12:59:06.095Z,103210.03
2023-02-27T13:04:47.597Z,103194.56
2023-02-27T13:10:22.270Z,103197.22
2023-02-27T13:15:52.247Z,103196.31
2023-02-27T13:21:24.265Z,103190.38
2023-02-27T13:26:58.543Z,103190.34
2023-02-27T13:32:41.612Z,103194.56
2023-02-27T13:38:45.563Z,103184.28
2023-02-27T13:44:19.807Z,103186.63
2023-02-27T13:49:45.011Z,103187.94
2023-02-27T13:55:27.734Z,103188.66
2023-02-27T14:00:56.895Z,103198.75
2023-02-27T14:06:21.655Z,103189.50
2023-02-27T14:11:55.451Z,103188.63
2023-02-27T14:17:41.079Z,103202.88
2023-02-27T14:23:15.061Z,103196.91
2023-02-27T14:28:56.455Z,103208.94
2023-02-27T14:34:22.214Z,103195.75
2023-02-27T14:39:44.765Z,103205.38
2023-02-27T14:45:19.912Z,103197.78
2023-02-27T14:50:42.504Z,103186.56
2023-02-27T14:56:06.840Z,103181.66
2023-02-27T15:01:35.367Z,103180.22
2023-02-27T15:07:03.085Z,103189.25
2023-02-27T15:12:28.115Z,103191.97
2023-02-27T15:17:57.502Z,103184.56
2023-02-27T15:23:26.002Z,103195.75
2023-02-27T15:28:50.745Z,103197.56
2023-02-27T15:34:15.536Z,103195.34
2023-02-27T15:39:42.758Z,103191.06
2023-02-27T15:45:08.080Z,103199.56
2023-02-27T15:50:34.035Z,103201.88
2023-02-27T15:56:02.009Z,103202.38
2023-02-27T16:01:29.653Z,103195.44
2023-02-27T16:07:02.089Z,103207.69
2023-02-27T16:12:31.555Z,103193.47
2023-02-27T16:18:08.552Z,103194.19
2023-02-27T16:23:32.008Z,103191.22
2023-02-27T16:28:54.027Z,103188.41
2023-02-27T16:34:26.100Z,103185.75
2023-02-27T16:39:52.448Z,103198.28
2023-02-27T16:45:17.007Z,103201.69
2023-02-27T16:50:41.474Z,103201.09
2023-02-27T16:56:03.669Z,103211.66
2023-02-27T17:01:28.870Z,103209.28
2023-02-27T17:06:51.523Z,103204.91
2023-02-27T17:12:13.862Z,103214.97
2023-02-27T17:17:38.150Z,103211.72
2023-02-27T17:23:00.301Z,103219.41
2023-02-27T17:28:22.774Z,103223.41
2023-02-27T17:33:44.877Z,103233.66
2023-02-27T17:39:07.483Z,103223.28
2023-02-27T17:44:29.815Z,103220.78
2023-02-27T17:49:51.849Z,103222.75
2023-02-27T17:55:15.856Z,103226.91
2023-02-27T18:00:37.960Z,103223.59
2023-02-27T18:06:05.163Z,103220.94
2023-02-27T18:11:27.182Z,103225.72
2023-02-27T18:16:52.264Z,103216.72
2023-02-27T18:22:15.455Z,103222.63
2023-02-27T18:27:40.356Z,103236.69
2023-02-27T18:33:04.626Z,103218.00
2023-02-27T18:38:29.314Z,103213.78
2023-02-27T18:43:53.809Z,103215.44
2023-02-27T18:49:15.906Z,103213.53
2023-02-27T18:54:38.431Z,103219.38
2023-02-27T19:00:03.418Z,103213.09
2023-02-27T19:05:25.593Z,103206.84
2023-02-27T19:10:47.670Z,103214.91
2023-02-27T19:16:30.311Z,103205.56
2023-02-27T19:21:53.598Z,103218.84
2023-02-27T19:27:18.156Z,103227.06
2023-02-27T19:32:40.363Z,103224.25
2023-02-27T19:38:07.587Z,103223.09
2023-02-27T19:43:31.894Z,103226.16
2023-02-27T19:48:58.350Z,103210.94
2023-02-27T19:54:20.446Z,103222.72
2023-02-27T19:59:47.584Z,103227.53
2023-02-27T20:05:12.130Z,103225.19
2023-02-27T20:10:44.200Z,103229.56
2023-02-27T20:16:08.506Z,103233.00
2023-02-27T20:21:41.223Z,103234.69
2023-02-27T20:27:07.245Z,103233.84
2023-02-27T20:32:32.436Z,103227.06
2023-02-27T20:37:54.527Z,103235.91
2023-02-27T20:43:19.105Z,103237.53
2023-02-27T20:48:41.759Z,103241.72
2023-02-27T20:54:09.949Z,103246.25
2023-02-27T20:59:32.342Z,103251.50
2023-02-27T21:04:54.746Z,103249.09
2023-02-27T21:10:20.015Z,103259.44
2023-02-27T21:15:42.205Z,103246.53
2023-02-27T21:21:13.253Z,103239.59
2023-02-27T21:26:40.614Z,103245.56
2023-02-27T21:32:08.628Z,103233.16
2023-02-27T21:37:33.109Z,103236.84
2023-02-27T21:42:55.494Z,103240.50
2023-02-27T21:48:18.283Z,103240.59
2023-02-27T21:53:40.503Z,103237.16
2023-02-27T21:59:05.486Z,103245.03
2023-02-27T22:04:27.476Z,103242.31
2023-02-27T22:09:52.565Z,103232.81
2023-02-27T22:15:14.797Z,103236.38
2023-02-27T22:20:39.933Z,103232.81
2023-02-27T22:26:07.948Z,103240.00
2023-02-27T22:31:36.876Z,103247.31
2023-02-27T22:37:01.205Z,103253.50
2023-02-27T22:42:23.707Z,103263.22
2023-02-27T22:47:45.795Z,103254.41
2023-02-27T22:53:07.832Z,103257.91
2023-02-27T22:58:37.132Z,103260.91
2023-02-27T23:04:01.355Z,103261.38
2023-02-27T23:09:28.541Z,103274.81
2023-02-27T23:14:52.641Z,103268.97
2023-02-27T23:20:14.807Z,103263.13
2023-02-27T23:25:37.895Z,103259.94
2023-02-27T23:31:02.117Z,103257.59
2023-02-27T23:36:24.122Z,103260.44
2023-02-27T23:41:46.139Z,103257.78
2023-02-27T23:47:10.436Z,103257.59
2023-02-27T23:52:32.521Z,103260.50
2023-02-27T23:57:56.135Z,103255.03
